This is the latest recevied weather packets stored in our database for station/object AG1T-20. If no packets are shown the sender has not sent any weather packets the latest 10 day(s).
| Time | Temp. | Humidity | Pressure | Rain* | Wind** | Luminosity | Snow |
|---|---|---|---|---|---|---|---|
| 1777365005 | 2.78° C | 85% | 1019.1 hPa | 0 mm | - | 0 W/m² | - |
| 1777364405 | 2.78° C | 84% | 1019.1 hPa | 0 mm | - | 0 W/m² | - |
| 1777363805 | 2.78° C | 85% | 1019.1 hPa | 0 mm | - | 0 W/m² | - |
| 1777363208 | 2.78° C | 85% | 1019.1 hPa | 0 mm | - | 0 W/m² | - |
| 1777362605 | 3.33° C | 84% | 1018.6 hPa | 0 mm | - | 0 W/m² | - |
| 1777362005 | 3.33° C | 84% | 1018.6 hPa | 0 mm | - | 0 W/m² | - |
| 1777361405 | 2.78° C | 85% | 1018.6 hPa | 0 mm | - | 0 W/m² | - |
| 1777360805 | 3.33° C | 85% | 1018.6 hPa | 0 mm | - | 0 W/m² | - |
| 1777360205 | 3.33° C | 83% | 1018.6 hPa | 0 mm | - | 0 W/m² | - |
| 1777359605 | 3.33° C | 83% | 1018.6 hPa | 0 mm | - | 0 W/m² | - |
| 1777359005 | 3.33° C | 84% | 1018.1 hPa | 0 mm | - | 0 W/m² | - |
| 1777358405 | 3.33° C | 81% | 1018.1 hPa | 0 mm | - | 0 W/m² | - |
| 1777357805 | 3.33° C | 80% | 1018.1 hPa | 0 mm | - | 0 W/m² | - |
| 1777357205 | 3.33° C | 79% | 1018.1 hPa | 0 mm | - | 0 W/m² | - |
| 1777356605 | 3.33° C | 78% | 1018.1 hPa | 0 mm | - | 0 W/m² | - |
| 1777356005 | 3.89° C | 75% | 1018.1 hPa | 0 mm | - | 0 W/m² | - |
| 1777355405 | 5° C | 70% | 1017.7 hPa | 0 mm | - | 0 W/m² | - |
| 1777354805 | 5° C | 71% | 1017.7 hPa | 0 mm | - | 0 W/m² | - |
| 1777354205 | 5° C | 74% | 1017.7 hPa | 0 mm | - | 0 W/m² | - |
| 1777353605 | 4.44° C | 76% | 1017.7 hPa | 0 mm | - | 0 W/m² | - |
| 1777353005 | 4.44° C | 77% | 1017.7 hPa | 0 mm | - | 0 W/m² | - |
| 1777352405 | 4.44° C | 76% | 1017.7 hPa | 0 mm | - | 0 W/m² | - |
| 1777351805 | 4.44° C | 75% | 1017.1 hPa | 0 mm | - | 0 W/m² | - |
| 1777351205 | 4.44° C | 75% | 1017.1 hPa | 0 mm | - | 0 W/m² | - |
| 1777350604 | 5° C | 74% | 1017.1 hPa | 0 mm | - | 0 W/m² | - |
* Rain latest hour (hover to see other rain measurements)
** Current wind speed in m/s (hover to see current wind gust speed)